Time,TemperatureF,DewpointF,PressureIn,WindDirection,WindDirectionDegrees,WindSpeedMPH,WindSpeedGustMPH,Humidity,HourlyPrecipIn,Conditions,Clouds,dailyrainin,SoftwareType,DateUTC
2013-05-24 00:10:00,49.6,45.0,29.82,North,0,0.0,-999.0,84,-99.99,,,0.00,Acu-Link.com,2013-05-24 07:10:00,
2013-05-24 00:25:00,49.3,44.7,29.82,NE,45,1.7,-999.0,84,-99.99,,,0.00,Acu-Link.com,2013-05-24 07:25:00,
2013-05-24 00:41:00,48.7,45.0,29.82,NNE,22,0.0,-999.0,87,-99.99,,,0.00,Acu-Link.com,2013-05-24 07:41:00,
2013-05-24 00:56:00,48.6,45.2,29.83,ESE,112,0.0,-999.0,88,-99.99,,,0.00,Acu-Link.com,2013-05-24 07:56:00,
2013-05-24 01:11:00,48.4,45.0,29.82,North,0,0.0,-999.0,88,-99.99,,,0.00,Acu-Link.com,2013-05-24 08:11:00,
2013-05-24 01:26:00,48.4,45.3,29.82,NNW,337,0.0,-999.0,89,-99.99,,,0.00,Acu-Link.com,2013-05-24 08:26:00,
2013-05-24 01:42:00,48.4,45.6,29.82,NW,315,3.7,-999.0,90,-99.99,,,0.00,Acu-Link.com,2013-05-24 08:42:00,
2013-05-24 01:57:00,48.4,45.9,29.82,West,270,3.7,-999.0,91,-99.99,,,0.00,Acu-Link.com,2013-05-24 08:57:00,
2013-05-24 02:12:00,48.6,46.1,29.81,ESE,112,0.0,-999.0,91,-99.99,,,0.00,Acu-Link.com,2013-05-24 09:12:00,
2013-05-24 02:27:00,48.2,45.4,29.82,North,0,0.0,-999.0,90,-99.99,,,0.00,Acu-Link.com,2013-05-24 09:27:00,
2013-05-24 02:42:00,48.0,45.5,29.81,NNW,337,0.0,-999.0,91,-99.99,,,0.00,Acu-Link.com,2013-05-24 09:42:00,
2013-05-24 02:57:00,47.7,45.5,29.81,SW,225,2.2,-999.0,92,-99.99,,,0.00,Acu-Link.com,2013-05-24 09:57:00,
2013-05-24 03:13:00,47.7,44.6,29.81,East,90,0.0,-999.0,89,-99.99,,,0.00,Acu-Link.com,2013-05-24 10:13:00,
2013-05-24 03:28:00,46.9,45.0,29.80,WNW,292,2.7,-999.0,93,-99.99,,,0.00,Acu-Link.com,2013-05-24 10:28:00,
2013-05-24 03:43:00,47.8,46.2,29.81,SW,225,2.7,-999.0,94,-99.99,,,0.00,Acu-Link.com,2013-05-24 10:43:00,
2013-05-24 03:59:00,47.8,46.2,29.81,NNE,22,1.1,-999.0,94,-99.99,,,0.00,Acu-Link.com,2013-05-24 10:59:00,
2013-05-24 04:14:00,47.7,45.8,29.81,NE,45,0.0,-999.0,93,-99.99,,,0.00,Acu-Link.com,2013-05-24 11:14:00,
2013-05-24 04:29:00,47.5,45.6,29.81,West,270,0.0,-999.0,93,-99.99,,,0.00,Acu-Link.com,2013-05-24 11:29:00,
2013-05-24 04:44:00,47.3,44.8,29.81,WSW,247,0.0,-999.0,91,-99.99,,,0.00,Acu-Link.com,2013-05-24 11:44:00,
2013-05-24 05:00:00,46.6,44.4,29.81,NNE,22,0.0,-999.0,92,-99.99,,,0.00,Acu-Link.com,2013-05-24 12:00:00,
2013-05-24 05:15:00,47.1,45.2,29.81,West,270,2.7,-999.0,93,-99.99,,,0.00,Acu-Link.com,2013-05-24 12:15:00,
2013-05-24 05:30:00,47.7,45.2,29.81,West,270,1.1,-999.0,91,-99.99,,,0.00,Acu-Link.com,2013-05-24 12:30:00,
2013-05-24 05:45:00,47.8,45.0,29.82,NNW,337,0.0,-999.0,90,-99.99,,,0.00,Acu-Link.com,2013-05-24 12:45:00,
2013-05-24 06:01:00,47.7,44.9,29.82,SSE,157,0.0,-999.0,90,-99.99,,,0.00,Acu-Link.com,2013-05-24 13:01:00,
2013-05-24 06:16:00,47.8,45.0,29.82,NNW,337,2.2,-999.0,90,-99.99,,,0.00,Acu-Link.com,2013-05-24 13:16:00,
2013-05-24 06:31:00,48.0,45.2,29.82,ENE,67,1.7,-999.0,90,-99.99,,,0.00,Acu-Link.com,2013-05-24 13:31:00,
2013-05-24 06:46:00,48.4,45.3,29.82,NE,45,1.7,-999.0,89,-99.99,,,0.00,Acu-Link.com,2013-05-24 13:46:00,
2013-05-24 07:02:00,48.9,45.5,29.82,East,90,0.0,-999.0,88,-99.99,,,0.00,Acu-Link.com,2013-05-24 14:02:00,
2013-05-24 07:17:00,50.4,46.4,29.82,NNE,22,0.0,-999.0,86,-99.99,,,0.00,Acu-Link.com,2013-05-24 14:17:00,
2013-05-24 07:32:00,54.9,45.3,29.83,NE,45,1.7,-999.0,70,-99.99,,,0.00,Acu-Link.com,2013-05-24 14:32:00,
2013-05-24 07:47:00,57.2,45.5,29.83,NW,315,2.2,-999.0,65,-99.99,,,0.00,Acu-Link.com,2013-05-24 14:47:00,
2013-05-24 08:02:00,59.4,45.5,29.84,NNE,22,3.7,-999.0,60,-99.99,,,0.00,Acu-Link.com,2013-05-24 15:02:00,
2013-05-24 08:17:00,60.6,45.7,29.83,North,0,0.0,-999.0,58,-99.99,,,0.00,Acu-Link.com,2013-05-24 15:17:00,
2013-05-24 08:33:00,60.8,45.5,29.83,West,270,5.3,-999.0,57,-99.99,,,0.00,Acu-Link.com,2013-05-24 15:33:00,
2013-05-24 08:48:00,59.7,45.8,29.84,NNE,22,3.7,-999.0,60,-99.99,,,0.00,Acu-Link.com,2013-05-24 15:48:00,
2013-05-24 09:03:00,60.3,45.5,29.84,NNW,337,2.7,-999.0,58,-99.99,,,0.00,Acu-Link.com,2013-05-24 16:03:00,
2013-05-24 09:19:00,65.5,47.4,29.84,West,270,0.0,-999.0,52,-99.99,,,0.00,Acu-Link.com,2013-05-24 16:19:00,
2013-05-24 09:34:00,60.6,46.2,29.85,North,0,3.7,-999.0,59,-99.99,,,0.00,Acu-Link.com,2013-05-24 16:34:00,
2013-05-24 09:49:00,60.4,45.1,29.85,NW,315,2.7,-999.0,57,-99.99,,,0.00,Acu-Link.com,2013-05-24 16:49:00,
2013-05-24 10:04:00,61.2,45.4,29.84,NNE,22,5.3,-999.0,56,-99.99,,,0.00,Acu-Link.com,2013-05-24 17:04:00,
2013-05-24 10:19:00,61.7,45.8,29.83,NW,315,7.8,-999.0,56,-99.99,,,0.00,Acu-Link.com,2013-05-24 17:19:00,
2013-05-24 10:35:00,62.4,44.5,29.84,NNE,22,5.3,-999.0,52,-99.99,,,0.00,Acu-Link.com,2013-05-24 17:35:00,
2013-05-24 10:50:00,61.0,45.2,29.84,WNW,292,6.3,-999.0,56,-99.99,,,0.00,Acu-Link.com,2013-05-24 17:50:00,
2013-05-24 11:05:00,62.2,44.9,29.85,NNW,337,7.3,-999.0,53,-99.99,,,0.00,Acu-Link.com,2013-05-24 18:05:00,
2013-05-24 11:20:00,61.5,45.2,29.85,NNE,22,4.2,-999.0,55,-99.99,,,0.00,Acu-Link.com,2013-05-24 18:20:00,
2013-05-24 11:35:00,61.5,45.2,29.85,West,270,4.7,-999.0,55,-99.99,,,0.00,Acu-Link.com,2013-05-24 18:35:00,
2013-05-24 11:50:00,61.0,44.7,29.85,South,180,5.8,-999.0,55,-99.99,,,0.00,Acu-Link.com,2013-05-24 18:50:00,
2013-05-24 12:05:00,63.3,45.4,29.85,NNW,337,6.8,-999.0,52,-99.99,,,0.00,Acu-Link.com,2013-05-24 19:05:00,
2013-05-24 12:21:00,64.4,44.8,29.84,NNE,22,7.3,-999.0,49,-99.99,,,0.00,Acu-Link.com,2013-05-24 19:21:00,
2013-05-24 12:36:00,65.8,45.0,29.84,West,270,7.8,-999.0,47,-99.99,,,0.00,Acu-Link.com,2013-05-24 19:36:00,
2013-05-24 12:51:00,65.5,43.6,29.83,NNE,22,4.7,-999.0,45,-99.99,,,0.00,Acu-Link.com,2013-05-24 19:51:00,
2013-05-24 13:06:00,66.4,45.0,29.84,North,0,3.2,-999.0,46,-99.99,,,0.00,Acu-Link.com,2013-05-24 20:06:00,
2013-05-24 13:22:00,66.6,45.2,29.83,SW,225,5.8,-999.0,46,-99.99,,,0.00,Acu-Link.com,2013-05-24 20:22:00,
2013-05-24 13:37:00,65.5,44.7,29.84,SW,225,7.8,-999.0,47,-99.99,,,0.00,Acu-Link.com,2013-05-24 20:37:00,
2013-05-24 13:52:00,66.6,43.4,29.83,North,0,8.3,-999.0,43,-99.99,,,0.00,Acu-Link.com,2013-05-24 20:52:00,
2013-05-24 14:07:00,66.6,44.0,29.83,West,270,6.8,-999.0,44,-99.99,,,0.00,Acu-Link.com,2013-05-24 21:07:00,
2013-05-24 14:22:00,66.4,45.0,29.83,SSE,157,6.8,-999.0,46,-99.99,,,0.00,Acu-Link.com,2013-05-24 21:22:00,
2013-05-24 14:38:00,65.8,45.6,29.83,WNW,292,9.9,-999.0,48,-99.99,,,0.00,Acu-Link.com,2013-05-24 21:38:00,
2013-05-24 14:53:00,64.6,46.6,29.83,West,270,2.7,-999.0,52,-99.99,,,0.00,Acu-Link.com,2013-05-24 21:53:00,
2013-05-24 15:08:00,65.8,46.6,29.82,West,270,6.8,-999.0,50,-99.99,,,0.00,Acu-Link.com,2013-05-24 22:08:00,
2013-05-24 15:23:00,64.8,46.8,29.82,NNW,337,5.3,-999.0,52,-99.99,,,0.00,Acu-Link.com,2013-05-24 22:23:00,
2013-05-24 15:38:00,64.4,46.4,29.82,NNW,337,9.4,-999.0,52,-99.99,,,0.00,Acu-Link.com,2013-05-24 22:38:00,
2013-05-24 15:53:00,63.5,46.1,29.81,WNW,292,4.7,-999.0,53,-99.99,,,0.00,Acu-Link.com,2013-05-24 22:53:00,
2013-05-24 16:08:00,64.0,46.5,29.81,West,270,5.8,-999.0,53,-99.99,,,0.00,Acu-Link.com,2013-05-24 23:08:00,
2013-05-24 16:23:00,64.8,46.2,29.80,NNE,22,4.7,-999.0,51,-99.99,,,0.00,Acu-Link.com,2013-05-24 23:23:00,
2013-05-24 16:38:00,62.4,45.5,29.81,North,0,2.7,-999.0,54,-99.99,,,0.00,Acu-Link.com,2013-05-24 23:38:00,
2013-05-24 16:54:00,62.2,45.3,29.81,East,90,11.9,-999.0,54,-99.99,,,0.00,Acu-Link.com,2013-05-24 23:54:00,
2013-05-24 17:09:00,63.3,45.9,29.80,North,0,8.9,-999.0,53,-99.99,,,0.00,Acu-Link.com,2013-05-25 00:09:00,
2013-05-24 17:24:00,63.1,45.7,29.81,North,0,3.2,-999.0,53,-99.99,,,0.00,Acu-Link.com,2013-05-25 00:24:00,
2013-05-24 17:39:00,64.9,45.8,29.80,ENE,67,2.7,-999.0,50,-99.99,,,0.00,Acu-Link.com,2013-05-25 00:39:00,
2013-05-24 17:54:00,63.9,45.4,29.80,West,270,4.2,-999.0,51,-99.99,,,0.00,Acu-Link.com,2013-05-25 00:54:00,
2013-05-24 18:09:00,61.2,44.9,29.79,NNW,337,14.5,-999.0,55,-99.99,,,0.00,Acu-Link.com,2013-05-25 01:09:00,
2013-05-24 18:25:00,61.2,44.9,29.79,NW,315,8.3,-999.0,55,-99.99,,,0.00,Acu-Link.com,2013-05-25 01:25:00,
2013-05-24 18:40:00,60.8,45.0,29.79,NNW,337,5.3,-999.0,56,-99.99,,,0.00,Acu-Link.com,2013-05-25 01:40:00,
2013-05-24 18:55:00,59.5,44.7,29.79,North,0,5.8,-999.0,58,-99.99,,,0.00,Acu-Link.com,2013-05-25 01:55:00,
2013-05-24 19:10:00,57.7,44.3,29.78,North,0,6.8,-999.0,61,-99.99,,,0.00,Acu-Link.com,2013-05-25 02:10:00,
2013-05-24 19:26:00,55.2,44.4,29.78,East,90,3.7,-999.0,67,-99.99,,,0.00,Acu-Link.com,2013-05-25 02:26:00,
2013-05-24 19:41:00,54.0,44.1,29.78,North,0,9.9,-999.0,69,-99.99,,,0.00,Acu-Link.com,2013-05-25 02:41:00,
2013-05-24 19:56:00,53.2,44.4,29.79,NNE,22,8.3,-999.0,72,-99.99,,,0.00,Acu-Link.com,2013-05-25 02:56:00,
2013-05-24 20:11:00,52.7,44.6,29.79,East,90,2.7,-999.0,74,-99.99,,,0.00,Acu-Link.com,2013-05-25 03:11:00,
2013-05-24 20:26:00,52.2,44.9,29.79,West,270,2.2,-999.0,76,-99.99,,,0.00,Acu-Link.com,2013-05-25 03:26:00,
2013-05-24 20:42:00,51.6,44.6,29.79,SW,225,5.3,-999.0,77,-99.99,,,0.00,Acu-Link.com,2013-05-25 03:42:00,
2013-05-24 20:57:00,51.3,45.0,29.80,West,270,7.3,-999.0,79,-99.99,,,0.00,Acu-Link.com,2013-05-25 03:57:00,
2013-05-24 21:12:00,51.1,45.1,29.80,NW,315,5.3,-999.0,80,-99.99,,,0.00,Acu-Link.com,2013-05-25 04:12:00,
2013-05-24 21:28:00,50.7,45.4,29.80,SW,225,6.8,-999.0,82,-99.99,,,0.00,Acu-Link.com,2013-05-25 04:28:00,
2013-05-24 21:43:00,50.5,45.2,29.80,North,0,4.2,-999.0,82,-99.99,,,0.00,Acu-Link.com,2013-05-25 04:43:00,
2013-05-24 21:58:00,50.5,45.2,29.80,West,270,3.2,-999.0,82,-99.99,,,0.00,Acu-Link.com,2013-05-25 04:58:00,
2013-05-24 22:13:00,50.5,45.5,29.81,NNE,22,1.7,-999.0,83,-99.99,,,0.00,Acu-Link.com,2013-05-25 05:13:00,
2013-05-24 22:28:00,50.4,45.4,29.81,SSW,202,3.7,-999.0,83,-99.99,,,0.00,Acu-Link.com,2013-05-25 05:28:00,
2013-05-24 22:44:00,50.2,45.2,29.82,North,0,1.1,-999.0,83,-99.99,,,0.00,Acu-Link.com,2013-05-25 05:44:00,
2013-05-24 22:59:00,50.2,45.6,29.82,WNW,292,1.7,-999.0,84,-99.99,,,0.00,Acu-Link.com,2013-05-25 05:59:00,
2013-05-24 23:14:00,50.0,45.4,29.82,NNW,337,1.7,-999.0,84,-99.99,,,0.00,Acu-Link.com,2013-05-25 06:14:00,
2013-05-24 23:29:00,50.0,45.4,29.81,SSE,157,3.7,-999.0,84,-99.99,,,0.00,Acu-Link.com,2013-05-25 06:29:00,
2013-05-24 23:44:00,49.6,45.3,29.81,WNW,292,4.2,-999.0,85,-99.99,,,0.00,Acu-Link.com,2013-05-25 06:44:00,